createdAt,value
2023-04-24T00:01:22.208Z,24.12
2023-04-24T00:03:53.904Z,23.85
2023-04-24T00:06:26.275Z,23.78
2023-04-24T00:08:57.809Z,23.78
2023-04-24T00:11:29.325Z,23.85
2023-04-24T00:14:01.354Z,23.83
2023-04-24T00:16:32.246Z,23.86
2023-04-24T00:19:03.430Z,23.86
2023-04-24T00:21:35.711Z,23.76
2023-04-24T00:24:08.773Z,23.81
2023-04-24T00:26:39.639Z,23.78
2023-04-24T00:29:43.008Z,23.92
2023-04-24T00:32:14.136Z,23.82
2023-04-24T00:34:46.052Z,23.81
2023-04-24T00:37:16.673Z,23.63
2023-04-24T00:39:49.069Z,23.61
2023-04-24T00:42:20.286Z,23.54
2023-04-24T00:44:52.319Z,23.55
2023-04-24T00:47:24.238Z,23.61
2023-04-24T00:49:56.093Z,23.53
2023-04-24T00:52:26.756Z,23.57
2023-04-24T00:54:58.669Z,23.58
2023-04-24T00:57:29.952Z,23.67
2023-04-24T01:00:02.429Z,23.63
2023-04-24T01:02:33.683Z,23.71
2023-04-24T01:05:06.087Z,23.71
2023-04-24T01:07:39.148Z,23.65
2023-04-24T01:10:12.458Z,23.75
2023-04-24T01:12:44.167Z,23.76
2023-04-24T01:15:16.141Z,23.79
2023-04-24T01:17:48.140Z,23.88
2023-04-24T01:20:21.116Z,23.94
2023-04-24T01:22:52.869Z,23.99
2023-04-24T01:25:27.594Z,24.12
2023-04-24T01:28:01.380Z,24.12
2023-04-24T01:30:33.995Z,24.19
2023-04-24T01:33:05.750Z,24.22
2023-04-24T01:35:39.448Z,24.31
2023-04-24T01:38:11.293Z,24.46
2023-04-24T01:40:42.105Z,24.52
2023-04-24T01:43:14.067Z,24.63
2023-04-24T01:45:45.451Z,24.73
2023-04-24T01:48:19.509Z,24.83
2023-04-24T01:50:50.349Z,24.91
2023-04-24T01:53:21.432Z,25.01
2023-04-24T01:55:53.151Z,25.06
2023-04-24T01:58:25.348Z,25.20
2023-04-24T02:00:56.441Z,25.22
2023-04-24T02:03:27.253Z,25.32
2023-04-24T02:05:59.594Z,25.46
2023-04-24T02:08:30.535Z,25.40
2023-04-24T02:11:02.265Z,25.52
2023-04-24T02:13:34.481Z,25.65
2023-04-24T02:16:05.696Z,25.76
2023-04-24T02:18:37.483Z,25.92
2023-04-24T02:21:12.150Z,25.91
2023-04-24T02:23:43.964Z,26.03
2023-04-24T02:26:17.144Z,26.05
2023-04-24T02:28:48.557Z,26.16
2023-04-24T02:31:19.761Z,26.23
2023-04-24T02:33:51.921Z,26.22
2023-04-24T02:36:23.502Z,26.28
2023-04-24T02:38:53.229Z,26.36
2023-04-24T02:41:22.440Z,26.40
2023-04-24T02:43:51.557Z,26.32
2023-04-24T02:46:20.932Z,26.59
2023-04-24T02:48:50.095Z,26.64
2023-04-24T02:51:19.245Z,26.66
2023-04-24T02:53:48.275Z,26.83
2023-04-24T02:56:17.314Z,26.93
2023-04-24T02:58:46.411Z,27.07
2023-04-24T03:01:15.665Z,27.09
2023-04-24T03:03:45.071Z,27.15
2023-04-24T03:06:14.248Z,27.28
2023-04-24T03:08:43.482Z,27.42
2023-04-24T03:11:16.583Z,27.57
2023-04-24T03:13:45.838Z,27.54
2023-04-24T03:16:14.847Z,27.59
2023-04-24T03:18:43.950Z,27.66
2023-04-24T03:21:15.220Z,27.71
2023-04-24T03:23:45.152Z,27.91
2023-04-24T03:26:14.164Z,28.02
2023-04-24T03:28:53.802Z,28.17
2023-04-24T03:31:23.304Z,28.26
2023-04-24T03:33:53.125Z,28.32
2023-04-24T03:36:22.543Z,28.48
2023-04-24T03:38:51.641Z,28.59
2023-04-24T03:41:34.004Z,28.75
2023-04-24T03:44:16.726Z,28.90
2023-04-24T03:46:46.098Z,28.96
2023-04-24T03:49:15.508Z,29.07
2023-04-24T03:51:46.815Z,29.21
2023-04-24T03:54:27.506Z,29.32
2023-04-24T03:56:56.862Z,29.47
2023-04-24T03:59:28.260Z,29.65
2023-04-24T04:02:14.788Z,29.89
2023-04-24T04:04:44.051Z,29.92
2023-04-24T04:07:14.977Z,29.92
2023-04-24T04:09:44.608Z,30.12
2023-04-24T04:12:14.689Z,30.31
2023-04-24T04:14:44.903Z,30.44
2023-04-24T04:17:14.221Z,30.57
2023-04-24T04:19:44.931Z,30.74
2023-04-24T04:22:14.124Z,30.89
2023-04-24T04:24:48.323Z,31.07
2023-04-24T04:27:19.086Z,31.26
2023-04-24T04:29:55.558Z,31.42
2023-04-24T04:32:25.341Z,31.43
2023-04-24T04:34:55.236Z,31.75
2023-04-24T04:37:27.410Z,31.85
2023-04-24T04:40:15.010Z,32.15
2023-04-24T04:42:59.383Z,32.35
2023-04-24T04:45:32.652Z,32.31
2023-04-24T04:48:33.509Z,32.67
2023-04-24T04:51:04.521Z,32.78
2023-04-24T04:53:33.831Z,32.89
2023-04-24T04:56:02.758Z,33.06
2023-04-24T04:58:38.415Z,33.06
2023-04-24T05:01:11.243Z,33.29
2023-04-24T05:03:44.293Z,33.53
2023-04-24T05:06:15.906Z,33.73
2023-04-24T05:08:46.407Z,33.56
2023-04-24T05:11:44.227Z,33.76
2023-04-24T05:14:14.788Z,34.00
2023-04-24T05:16:45.415Z,34.15
2023-04-24T05:19:16.893Z,34.07
2023-04-24T05:21:48.088Z,34.15
2023-04-24T05:24:17.558Z,34.19
2023-04-24T05:26:46.518Z,34.42
2023-04-24T05:29:18.193Z,34.37
2023-04-24T05:31:47.700Z,34.53
2023-04-24T05:34:18.857Z,34.98
2023-04-24T05:36:52.690Z,34.92
2023-04-24T05:39:22.891Z,34.91
2023-04-24T05:41:51.926Z,35.20
2023-04-24T05:44:20.746Z,35.29
2023-04-24T05:46:50.525Z,35.25
2023-04-24T05:49:20.326Z,35.09
2023-04-24T05:51:49.901Z,35.22
2023-04-24T05:54:20.376Z,35.45
2023-04-24T05:56:49.283Z,35.62
2023-04-24T05:59:27.303Z,35.91
2023-04-24T06:01:56.496Z,35.84
2023-04-24T06:04:26.825Z,35.81
2023-04-24T06:06:58.127Z,36.09
2023-04-24T06:09:28.214Z,36.17
2023-04-24T06:11:58.701Z,36.03
2023-04-24T06:14:34.294Z,36.20
2023-04-24T06:17:19.289Z,36.22
2023-04-24T06:19:49.487Z,36.28
2023-04-24T06:22:18.833Z,36.25
2023-04-24T06:24:49.181Z,36.22
2023-04-24T06:27:20.051Z,35.89
2023-04-24T06:29:56.192Z,36.30
2023-04-24T06:32:27.193Z,36.72
2023-04-24T06:34:57.172Z,36.62
2023-04-24T06:37:28.658Z,36.82
2023-04-24T06:39:57.784Z,37.01
2023-04-24T06:42:27.011Z,36.87
2023-04-24T06:44:55.997Z,37.04
2023-04-24T06:47:25.402Z,36.97
2023-04-24T06:49:55.732Z,37.06
2023-04-24T06:52:24.745Z,37.08
2023-04-24T06:54:53.854Z,37.18
2023-04-24T06:57:23.518Z,37.31
2023-04-24T06:59:52.504Z,37.34
2023-04-24T07:02:22.056Z,37.30
2023-04-24T07:04:51.392Z,37.43
2023-04-24T07:07:20.197Z,37.60
2023-04-24T07:09:50.441Z,37.60
2023-04-24T07:12:22.128Z,37.50
2023-04-24T07:14:51.810Z,37.57
2023-04-24T07:17:20.793Z,37.71
2023-04-24T07:19:49.872Z,37.57
2023-04-24T07:22:19.399Z,37.39
2023-04-24T07:24:48.137Z,37.35
2023-04-24T07:27:17.420Z,37.24
2023-04-24T07:29:46.650Z,37.41
2023-04-24T07:32:16.572Z,37.57
2023-04-24T07:34:45.556Z,37.48
2023-04-24T07:37:14.625Z,37.49
2023-04-24T07:39:43.922Z,37.08
2023-04-24T07:42:13.342Z,37.24
2023-04-24T07:44:42.221Z,37.20
2023-04-24T07:47:11.572Z,37.09
2023-04-24T07:49:41.159Z,37.30
2023-04-24T07:52:10.621Z,36.86
2023-04-24T07:54:39.463Z,37.24
2023-04-24T07:57:10.283Z,37.15
2023-04-24T07:59:39.275Z,37.04
2023-04-24T08:02:11.503Z,37.36
2023-04-24T08:04:40.682Z,37.36
2023-04-24T08:07:10.779Z,37.50
2023-04-24T08:09:39.756Z,37.62
2023-04-24T08:12:08.857Z,37.63
2023-04-24T08:14:37.995Z,37.26
2023-04-24T08:17:07.144Z,37.59
2023-04-24T08:19:36.871Z,37.60
2023-04-24T08:22:06.739Z,37.69
2023-04-24T08:24:36.334Z,37.78
2023-04-24T08:27:05.124Z,37.32
2023-04-24T08:29:34.720Z,37.26
2023-04-24T08:32:03.732Z,37.26
2023-04-24T08:34:32.862Z,37.41
2023-04-24T08:37:01.932Z,37.41
2023-04-24T08:39:31.008Z,37.55
2023-04-24T08:42:07.369Z,37.63
2023-04-24T08:44:37.992Z,37.47
2023-04-24T08:47:08.704Z,37.22
2023-04-24T08:49:39.587Z,37.20
2023-04-24T08:52:08.799Z,37.27
2023-04-24T08:54:38.407Z,37.69
2023-04-24T08:57:13.588Z,37.33
2023-04-24T08:59:44.539Z,37.22
2023-04-24T09:02:16.278Z,37.61
2023-04-24T09:04:46.697Z,37.74
2023-04-24T09:07:19.117Z,37.37
2023-04-24T09:09:48.345Z,37.45
2023-04-24T09:12:17.390Z,37.33
2023-04-24T09:14:47.790Z,37.43
2023-04-24T09:17:16.973Z,36.88
2023-04-24T09:19:46.666Z,37.04
2023-04-24T09:22:16.082Z,37.24
2023-04-24T09:24:45.125Z,37.50
2023-04-24T09:27:15.069Z,37.14
2023-04-24T09:29:57.532Z,37.29
2023-04-24T09:32:27.801Z,37.07
2023-04-24T09:35:14.680Z,37.08
2023-04-24T09:37:46.856Z,37.02
2023-04-24T09:40:19.833Z,37.07
2023-04-24T09:43:03.206Z,37.13
2023-04-24T09:45:40.193Z,37.37
2023-04-24T09:48:12.602Z,37.09
2023-04-24T09:50:42.315Z,36.99
2023-04-24T09:53:12.672Z,37.00
2023-04-24T09:55:47.557Z,36.95
2023-04-24T09:58:16.752Z,36.97
2023-04-24T10:00:48.670Z,36.87
2023-04-24T10:03:20.606Z,36.69
2023-04-24T10:05:49.962Z,36.78
2023-04-24T10:08:18.788Z,36.67
2023-04-24T10:10:48.908Z,36.82
2023-04-24T10:13:18.295Z,36.58
2023-04-24T10:15:50.279Z,36.23
2023-04-24T10:18:20.511Z,36.61
2023-04-24T10:20:49.951Z,36.53
2023-04-24T10:23:21.365Z,36.57
2023-04-24T10:25:51.806Z,36.58
2023-04-24T10:28:22.829Z,36.34
2023-04-24T10:30:53.105Z,36.59
2023-04-24T10:33:22.378Z,36.38
2023-04-24T10:35:53.288Z,36.51
2023-04-24T10:38:27.769Z,36.55
2023-04-24T10:41:21.562Z,36.55
2023-04-24T10:43:52.887Z,36.49
2023-04-24T10:46:25.105Z,36.28
2023-04-24T10:48:57.598Z,36.51
2023-04-24T10:51:45.303Z,36.28
2023-04-24T10:54:36.587Z,36.50
2023-04-24T10:57:27.308Z,36.51
2023-04-24T11:00:20.579Z,36.56
2023-04-24T11:02:52.404Z,36.39
2023-04-24T11:05:22.739Z,36.47
2023-04-24T11:08:18.029Z,36.57
2023-04-24T11:10:48.599Z,36.32
2023-04-24T11:13:24.774Z,36.32
2023-04-24T11:16:15.971Z,36.56
2023-04-24T11:18:52.857Z,36.29
2023-04-24T11:21:23.098Z,36.34
2023-04-24T11:23:52.683Z,36.48
2023-04-24T11:26:32.322Z,36.30
2023-04-24T11:29:10.711Z,36.54
2023-04-24T11:31:42.106Z,36.56
2023-04-24T11:34:12.862Z,36.58
2023-04-24T11:36:42.820Z,36.55
2023-04-24T11:39:13.098Z,36.50
2023-04-24T11:41:42.491Z,36.62
2023-04-24T11:44:13.448Z,36.44
2023-04-24T11:46:42.807Z,36.45
2023-04-24T11:49:11.947Z,36.53
2023-04-24T11:51:52.233Z,36.56
2023-04-24T11:54:23.490Z,36.58
2023-04-24T11:56:52.564Z,36.57
2023-04-24T11:59:21.731Z,36.49
2023-04-24T12:01:51.812Z,36.52
2023-04-24T12:04:21.499Z,36.52
2023-04-24T12:07:03.483Z,36.49
2023-04-24T12:09:47.511Z,36.50
2023-04-24T12:12:19.531Z,36.42
2023-04-24T12:15:11.827Z,36.35
2023-04-24T12:17:44.388Z,36.23
2023-04-24T12:20:15.432Z,36.14
2023-04-24T12:22:50.624Z,36.12
2023-04-24T12:25:21.333Z,35.95
2023-04-24T12:28:14.538Z,35.93
2023-04-24T12:30:47.478Z,35.78
2023-04-24T12:33:23.902Z,35.73
2023-04-24T12:35:56.624Z,35.69
2023-04-24T12:38:29.092Z,35.53
2023-04-24T12:41:14.156Z,35.56
2023-04-24T12:43:57.510Z,35.39
2023-04-24T12:46:27.311Z,35.19
2023-04-24T12:48:56.540Z,35.11
2023-04-24T12:51:26.235Z,35.09
2023-04-24T12:53:56.501Z,35.05
2023-04-24T12:56:26.484Z,34.84
2023-04-24T12:58:55.408Z,34.90
2023-04-24T13:01:24.556Z,34.83
2023-04-24T13:03:54.082Z,34.72
2023-04-24T13:06:23.218Z,34.68
2023-04-24T13:08:53.439Z,34.65
2023-04-24T13:11:24.116Z,34.62
2023-04-24T13:13:55.316Z,34.47
2023-04-24T13:16:25.518Z,34.49
2023-04-24T13:18:55.135Z,34.41
2023-04-24T13:21:24.217Z,34.40
2023-04-24T13:23:53.778Z,34.30
2023-04-24T13:26:23.387Z,34.22
2023-04-24T13:28:52.613Z,34.15
2023-04-24T13:31:21.564Z,34.07
2023-04-24T13:33:51.335Z,34.00
2023-04-24T13:36:20.497Z,33.95
2023-04-24T13:38:50.017Z,33.88
2023-04-24T13:41:18.968Z,33.83
2023-04-24T13:43:48.139Z,33.76
2023-04-24T13:46:17.322Z,33.76
2023-04-24T13:48:46.659Z,33.71
2023-04-24T13:51:15.776Z,33.63
2023-04-24T13:53:44.939Z,33.53
2023-04-24T13:56:15.915Z,33.55
2023-04-24T13:58:44.748Z,33.46
2023-04-24T14:01:15.399Z,33.45
2023-04-24T14:03:48.433Z,33.32
2023-04-24T14:06:17.962Z,33.33
2023-04-24T14:08:47.005Z,33.26
2023-04-24T14:11:17.226Z,33.21
2023-04-24T14:13:47.467Z,33.16
2023-04-24T14:16:16.913Z,33.09
2023-04-24T14:18:45.952Z,33.01
2023-04-24T14:21:15.094Z,32.93
2023-04-24T14:23:44.304Z,32.95
2023-04-24T14:26:13.812Z,32.90
2023-04-24T14:28:42.885Z,32.83
2023-04-24T14:31:12.114Z,32.75
2023-04-24T14:33:41.215Z,32.70
2023-04-24T14:36:10.270Z,32.64
2023-04-24T14:38:39.238Z,32.61
2023-04-24T14:41:13.932Z,32.60
2023-04-24T14:47:57.502Z,32.59
2023-04-24T14:50:29.915Z,32.57
2023-04-24T14:53:01.698Z,32.66
2023-04-24T14:55:30.898Z,32.50
2023-04-24T14:57:59.809Z,32.53
2023-04-24T15:00:29.152Z,32.52
2023-04-24T15:02:58.359Z,32.46
2023-04-24T15:05:27.525Z,32.47
2023-04-24T15:07:56.907Z,32.47
2023-04-24T15:10:27.328Z,32.46
2023-04-24T15:12:56.657Z,32.40
2023-04-24T15:15:25.673Z,32.32
2023-04-24T15:17:54.522Z,32.33
2023-04-24T15:20:23.762Z,32.30
2023-04-24T15:22:52.907Z,32.23
2023-04-24T15:25:21.878Z,32.18
2023-04-24T15:27:51.497Z,32.13
2023-04-24T15:30:20.712Z,32.11
2023-04-24T15:32:49.793Z,32.14
2023-04-24T15:35:19.664Z,32.13
2023-04-24T15:37:48.813Z,32.14
2023-04-24T15:40:17.890Z,32.09
2023-04-24T15:42:47.998Z,32.12
2023-04-24T15:45:17.208Z,32.10
2023-04-24T15:47:50.568Z,32.05
2023-04-24T15:50:20.483Z,32.00
2023-04-24T15:52:49.581Z,32.14
2023-04-24T15:55:18.822Z,32.13
2023-04-24T15:57:47.938Z,32.13
2023-04-24T16:00:17.479Z,32.14
2023-04-24T16:02:47.254Z,32.11
2023-04-24T16:05:16.319Z,32.11
2023-04-24T16:07:45.831Z,32.07
2023-04-24T16:10:15.808Z,32.09
2023-04-24T16:12:45.177Z,32.00
2023-04-24T16:15:14.271Z,32.00
2023-04-24T16:17:43.260Z,32.01
2023-04-24T16:20:14.751Z,32.03
2023-04-24T16:22:43.804Z,31.96
2023-04-24T16:25:13.326Z,31.86
2023-04-24T16:27:42.652Z,31.80
2023-04-24T16:30:12.300Z,31.77
2023-04-24T16:32:41.933Z,31.69
2023-04-24T16:35:11.193Z,31.73
2023-04-24T16:37:40.292Z,31.71
2023-04-24T16:40:11.890Z,31.70
2023-04-24T16:42:41.456Z,31.63
2023-04-24T16:45:10.914Z,31.62
2023-04-24T16:47:40.344Z,31.55
2023-04-24T16:50:09.430Z,31.57
2023-04-24T16:52:40.000Z,31.50
2023-04-24T16:55:10.348Z,31.51
2023-04-24T16:57:39.719Z,31.49
2023-04-24T17:00:09.902Z,31.58
2023-04-24T17:02:38.938Z,31.53
2023-04-24T17:05:08.643Z,31.56
2023-04-24T17:07:38.312Z,31.55
2023-04-24T17:10:09.952Z,31.54
2023-04-24T17:12:39.207Z,31.45
2023-04-24T17:15:08.697Z,31.45
2023-04-24T17:17:37.899Z,31.41
2023-04-24T17:20:18.728Z,31.29
2023-04-24T17:22:51.855Z,31.25
2023-04-24T17:25:22.325Z,31.09
2023-04-24T17:27:51.480Z,31.16
2023-04-24T17:30:20.376Z,31.15
2023-04-24T17:32:49.599Z,31.14
2023-04-24T17:35:18.974Z,31.12
2023-04-24T17:37:49.012Z,31.07
2023-04-24T17:40:19.083Z,31.06
2023-04-24T17:42:48.270Z,30.91
2023-04-24T17:45:17.385Z,30.82
2023-04-24T17:47:46.906Z,30.75
2023-04-24T17:50:16.814Z,30.67
2023-04-24T17:52:45.817Z,30.66
2023-04-24T17:55:15.292Z,30.65
2023-04-24T17:57:44.674Z,30.66
2023-04-24T18:00:14.804Z,30.73
2023-04-24T18:02:43.810Z,30.72
2023-04-24T18:05:12.962Z,30.65
2023-04-24T18:07:42.174Z,30.66
2023-04-24T18:10:11.290Z,30.64
2023-04-24T18:12:40.593Z,30.53
2023-04-24T18:15:16.364Z,30.49
2023-04-24T18:17:45.971Z,30.40
2023-04-24T18:20:18.230Z,30.32
2023-04-24T18:22:48.143Z,30.20
2023-04-24T18:25:17.661Z,30.12
2023-04-24T18:27:46.519Z,30.03
2023-04-24T18:30:16.327Z,30.00
2023-04-24T18:32:45.301Z,30.00
2023-04-24T18:35:14.314Z,29.90
2023-04-24T18:37:43.409Z,29.77
2023-04-24T18:40:12.776Z,29.73
2023-04-24T18:42:42.393Z,29.72
2023-04-24T18:45:14.691Z,29.70
2023-04-24T18:47:45.231Z,29.66
2023-04-24T18:50:15.732Z,29.53
2023-04-24T18:52:44.858Z,29.46
2023-04-24T18:55:13.942Z,29.38
2023-04-24T18:57:42.972Z,29.36
2023-04-24T19:00:12.418Z,29.34
2023-04-24T19:02:41.914Z,29.28
2023-04-24T19:05:12.600Z,29.25
2023-04-24T19:07:43.366Z,29.19
2023-04-24T19:10:12.869Z,29.12
2023-04-24T19:12:41.825Z,29.05
2023-04-24T19:15:14.646Z,29.04
2023-04-24T19:17:43.721Z,28.96
2023-04-24T19:20:13.016Z,29.02
2023-04-24T19:22:42.346Z,28.98
2023-04-24T19:25:11.374Z,28.98
2023-04-24T19:27:40.851Z,28.99
2023-04-24T19:30:10.516Z,28.99
2023-04-24T19:32:39.662Z,28.98
2023-04-24T19:35:09.281Z,28.94
2023-04-24T19:37:38.554Z,28.92
2023-04-24T19:40:08.990Z,28.91
2023-04-24T19:42:43.746Z,28.83
2023-04-24T19:45:13.992Z,28.83
2023-04-24T19:47:44.189Z,28.77
2023-04-24T19:50:16.027Z,28.72
2023-04-24T19:52:45.110Z,28.72
2023-04-24T19:55:13.953Z,28.59
2023-04-24T19:57:43.697Z,28.50
2023-04-24T20:00:13.406Z,28.43
2023-04-24T20:02:43.329Z,28.41
2023-04-24T20:05:13.293Z,28.29
2023-04-24T20:07:43.431Z,28.29
2023-04-24T20:10:14.250Z,28.32
2023-04-24T20:12:46.583Z,28.35
2023-04-24T20:15:19.671Z,28.36
2023-04-24T20:17:52.069Z,28.32
2023-04-24T20:20:25.044Z,28.27
2023-04-24T20:22:58.669Z,28.25
2023-04-24T20:25:32.234Z,28.21
2023-04-24T20:28:05.355Z,28.16
2023-04-24T20:30:38.472Z,28.10
2023-04-24T20:33:12.158Z,28.14
2023-04-24T20:35:45.609Z,28.14
2023-04-24T20:38:20.606Z,28.12
2023-04-24T20:40:58.054Z,28.11
2023-04-24T20:43:31.251Z,28.11
2023-04-24T20:46:04.787Z,28.07
2023-04-24T20:48:39.543Z,28.11
2023-04-24T20:51:12.683Z,28.11
2023-04-24T20:53:46.429Z,28.10
2023-04-24T20:56:23.452Z,28.08
2023-04-24T20:58:57.502Z,28.05
2023-04-24T21:01:31.917Z,28.03
2023-04-24T21:04:06.160Z,28.02
2023-04-24T21:06:38.166Z,27.96
2023-04-24T21:09:12.367Z,27.94
2023-04-24T21:11:46.611Z,27.95
2023-04-24T21:14:19.869Z,27.89
2023-04-24T21:16:52.928Z,27.91
2023-04-24T21:19:25.529Z,27.82
2023-04-24T21:21:58.524Z,27.83
2023-04-24T21:24:31.074Z,27.78
2023-04-24T21:27:03.676Z,27.93
2023-04-24T21:29:37.912Z,27.70
2023-04-24T21:32:11.219Z,27.62
2023-04-24T21:34:44.387Z,27.50
2023-04-24T21:37:19.660Z,27.43
2023-04-24T21:39:52.278Z,27.39
2023-04-24T21:42:25.937Z,27.38
2023-04-24T21:44:58.566Z,27.41
2023-04-24T21:47:32.162Z,27.43
2023-04-24T21:50:05.311Z,27.45
2023-04-24T21:52:38.523Z,27.38
2023-04-24T21:55:11.589Z,27.34
2023-04-24T21:57:44.053Z,27.29
2023-04-24T22:00:17.751Z,27.30
2023-04-24T22:02:50.766Z,27.22
2023-04-24T22:05:22.833Z,27.25
2023-04-24T22:07:56.374Z,27.03
2023-04-24T22:10:30.124Z,27.00
2023-04-24T22:13:03.550Z,27.07
2023-04-24T22:15:37.302Z,27.11
2023-04-24T22:18:11.975Z,26.91
2023-04-24T22:20:45.082Z,26.89
2023-04-24T22:23:19.758Z,26.73
2023-04-24T22:25:52.362Z,26.55
2023-04-24T22:28:24.824Z,26.52
2023-04-24T22:30:58.073Z,26.51
2023-04-24T22:33:31.712Z,26.73
2023-04-24T22:36:05.282Z,26.87
2023-04-24T22:38:37.889Z,26.79
2023-04-24T22:41:10.337Z,26.82
2023-04-24T22:43:43.452Z,26.85
2023-04-24T22:46:15.835Z,26.91
2023-04-24T22:48:51.229Z,26.78
2023-04-24T22:51:30.039Z,26.75
2023-04-24T22:54:10.035Z,26.59
2023-04-24T22:56:43.814Z,26.41
2023-04-24T22:59:16.971Z,26.34
2023-04-24T23:01:50.564Z,26.25
2023-04-24T23:04:23.784Z,26.18
2023-04-24T23:06:57.748Z,26.00
2023-04-24T23:09:30.282Z,25.95
2023-04-24T23:12:00.231Z,25.91
2023-04-24T23:14:29.644Z,25.83
2023-04-24T23:16:59.536Z,25.86
2023-04-24T23:19:29.079Z,25.67
2023-04-24T23:21:58.161Z,25.62
2023-04-24T23:24:27.701Z,25.51
2023-04-24T23:26:57.224Z,25.42
2023-04-24T23:29:27.170Z,25.42
2023-04-24T23:31:56.549Z,25.39
2023-04-24T23:34:26.248Z,25.25
2023-04-24T23:36:55.236Z,25.37
2023-04-24T23:39:24.579Z,25.23
2023-04-24T23:41:54.548Z,25.13
2023-04-24T23:44:24.299Z,25.08
2023-04-24T23:46:53.197Z,25.17
2023-04-24T23:49:23.475Z,25.13
2023-04-24T23:51:53.316Z,24.91
2023-04-24T23:54:23.029Z,24.74
2023-04-24T23:56:51.871Z,24.78
2023-04-24T23:59:22.702Z,24.86
